Time;durP1;ratioP1;P1;durP2;ratioP2;P2;SDS_P1;SDS_P2;PMS_P1;PMS_P2;Temp;Humidity;BMP_temperature;BMP_pressure;BME280_temperature;BME280_humidity;BME280_pressure;Samples;Min_cycle;Max_cycle;Signal;HPM_P1;HPM_P2
2021/10/02 00:44:50;;;;;;;2.03;1.83;;;14.20;99.90;;;;;;4998850;28;20536;-71
2021/10/02 00:47:19;;;;;;;2.10;1.77;;;14.20;99.90;;;;;;4999048;28;21160;-71
2021/10/02 00:49:49;;;;;;;3.10;2.23;;;14.20;99.90;;;;;;4993560;28;20571;-74
2021/10/02 00:52:17;;;;;;;1.90;1.80;;;14.20;99.90;;;;;;4997867;28;20454;-73
2021/10/02 00:54:46;;;;;;;2.27;2.03;;;14.20;99.90;;;;;;4995768;28;20460;-72
2021/10/02 00:57:14;;;;;;;2.17;1.90;;;14.20;99.90;;;;;;4994666;28;20557;-73
2021/10/02 00:59:42;;;;;;;2.13;1.83;;;14.20;99.90;;;;;;4995916;28;20500;-74
2021/10/02 01:02:15;;;;;;;1.60;1.50;;;14.20;99.90;;;;;;4997533;28;20970;-72
2021/10/02 01:04:54;;;;;;;2.37;1.83;;;14.20;99.90;;;;;;4996288;28;20445;-73
2021/10/02 01:07:28;;;;;;;3.43;1.87;;;14.30;99.90;;;;;;4997845;28;20519;-72
2021/10/02 01:10:11;;;;;;;3.33;1.77;;;14.30;99.90;;;;;;4999134;28;20497;-71
2021/10/02 01:12:50;;;;;;;2.80;1.73;;;14.30;99.90;;;;;;5000541;28;20461;-72
2021/10/02 01:15:31;;;;;;;2.63;2.40;;;14.30;99.90;;;;;;5002758;28;20446;-74
2021/10/02 01:18:05;;;;;;;1.30;1.10;;;14.30;99.90;;;;;;5003430;28;20484;-71
2021/10/02 01:20:42;;;;;;;2.10;1.60;;;14.30;99.90;;;;;;4995953;28;20453;-72
2021/10/02 01:23:28;;;;;;;1.73;1.60;;;14.40;99.90;;;;;;5011233;28;20464;-71
2021/10/02 01:26:19;;;;;;;3.93;2.33;;;14.40;99.90;;;;;;5007295;28;20514;-73
2021/10/02 01:28:54;;;;;;;3.70;1.90;;;14.40;99.90;;;;;;5006499;28;20488;-72
2021/10/02 01:31:24;;;;;;;2.07;1.43;;;14.40;99.90;;;;;;5002069;28;20461;-73
2021/10/02 01:33:58;;;;;;;1.87;1.53;;;14.30;99.90;;;;;;4998307;28;20453;-75
2021/10/02 01:36:41;;;;;;;2.83;1.50;;;14.30;99.90;;;;;;5003505;28;20456;-72
2021/10/02 01:47:38;;;;;;;2.30;2.10;;;14.50;99.90;;;;;;5004657;28;20475;-72
2021/10/02 01:50:07;;;;;;;3.73;1.97;;;14.50;99.90;;;;;;5003119;28;20548;-73
2021/10/02 01:52:38;;;;;;;1.70;1.60;;;14.40;99.90;;;;;;5001058;28;20543;-73
2021/10/02 01:55:08;;;;;;;7.50;2.27;;;14.40;99.90;;;;;;5000750;28;20581;-71
2021/10/02 01:57:40;;;;;;;1.77;1.67;;;14.40;99.90;;;;;;5000049;28;20508;-73
2021/10/02 02:00:10;;;;;;;2.30;2.10;;;14.30;99.90;;;;;;5003747;28;20457;-71
2021/10/02 02:02:40;;;;;;;3.27;2.63;;;14.40;99.90;;;;;;5000323;28;20476;-71
2021/10/02 02:05:09;;;;;;;3.00;2.70;;;14.40;99.90;;;;;;5000474;28;20461;-72
2021/10/02 02:07:38;;;;;;;3.03;2.70;;;14.30;99.90;;;;;;5002794;28;20469;-70
2021/10/02 02:10:08;;;;;;;4.03;3.30;;;14.30;99.90;;;;;;5001385;28;20524;-74
2021/10/02 02:12:35;;;;;;;2.63;2.43;;;14.30;99.90;;;;;;5003706;28;20515;-72
2021/10/02 02:15:05;;;;;;;3.27;2.50;;;14.40;99.90;;;;;;5001069;28;20441;-75
2021/10/02 02:17:36;;;;;;;3.10;2.70;;;14.40;99.90;;;;;;5001723;28;20512;-70
2021/10/02 02:20:04;;;;;;;2.97;2.77;;;14.40;99.90;;;;;;4998878;28;20479;-72
2021/10/02 02:22:31;;;;;;;2.77;2.30;;;14.50;99.90;;;;;;5002293;28;20466;-71
2021/10/02 02:24:58;;;;;;;3.90;2.50;;;14.50;99.90;;;;;;5002684;28;20461;-72
2021/10/02 02:27:26;;;;;;;3.20;2.90;;;14.40;99.90;;;;;;4994981;28;20466;-72
2021/10/02 02:29:54;;;;;;;5.00;2.50;;;14.40;99.90;;;;;;4999713;28;20489;-72
2021/10/02 02:32:21;;;;;;;2.50;2.30;;;14.40;99.90;;;;;;4997786;28;20453;-73
2021/10/02 02:34:50;;;;;;;2.60;2.40;;;14.40;99.90;;;;;;5006778;28;20452;-73
2021/10/02 02:37:17;;;;;;;3.30;2.93;;;14.50;99.90;;;;;;5002162;28;20461;-73
2021/10/02 02:39:45;;;;;;;6.13;3.03;;;14.40;99.90;;;;;;5003880;28;20533;-74
2021/10/02 02:42:12;;;;;;;2.97;2.67;;;14.40;99.90;;;;;;5005657;28;20466;-72
2021/10/02 02:44:39;;;;;;;3.07;2.83;;;14.40;99.90;;;;;;5003110;28;20887;-73
2021/10/02 02:47:08;;;;;;;2.80;2.50;;;14.40;99.90;;;;;;5002252;28;20515;-72
2021/10/02 02:49:46;;;;;;;3.43;3.13;;;14.40;99.90;;;;;;4998618;28;20524;-74
2021/10/02 02:52:21;;;;;;;3.87;3.00;;;14.40;99.90;;;;;;4999360;28;20540;-72
2021/10/02 02:54:54;;;;;;;2.40;2.20;;;14.40;99.90;;;;;;5006857;28;20547;-74
2021/10/02 02:57:27;;;;;;;6.80;3.30;;;14.50;99.90;;;;;;5002885;28;20975;-74
2021/10/02 03:00:05;;;;;;;3.23;2.93;;;14.50;99.90;;;;;;4994428;28;20558;-73
2021/10/02 03:02:35;;;;;;;5.33;2.50;;;14.60;99.90;;;;;;5001385;28;20473;-72
2021/10/02 03:05:03;;;;;;;2.67;2.47;;;14.60;99.90;;;;;;5001809;28;20829;-73
2021/10/02 03:07:33;;;;;;;3.60;2.30;;;14.60;99.90;;;;;;4996339;28;21053;-70
2021/10/02 03:10:02;;;;;;;2.63;2.27;;;14.60;99.90;;;;;;4999521;28;20508;-71
2021/10/02 03:12:36;;;;;;;2.77;2.30;;;14.60;99.90;;;;;;5008265;28;20441;-73
2021/10/02 03:15:05;;;;;;;2.40;2.20;;;14.60;99.90;;;;;;4999125;28;20450;-72
2021/10/02 03:17:33;;;;;;;3.30;2.90;;;14.50;99.90;;;;;;4997426;28;20476;-72
2021/10/02 03:20:02;;;;;;;3.13;2.83;;;14.50;99.90;;;;;;4996332;28;20469;-73
2021/10/02 03:22:30;;;;;;;2.80;2.40;;;14.50;99.90;;;;;;5000682;28;20457;-71
2021/10/02 03:24:59;;;;;;;3.27;2.73;;;14.60;99.90;;;;;;5005002;28;20521;-74
2021/10/02 03:27:28;;;;;;;3.03;2.73;;;14.50;99.90;;;;;;4993493;28;21101;-74
2021/10/02 03:29:56;;;;;;;3.00;2.30;;;14.60;99.90;;;;;;4993540;28;21053;-72
2021/10/02 03:32:24;;;;;;;3.63;3.33;;;14.50;99.90;;;;;;4993255;28;20487;-75
2021/10/02 03:34:52;;;;;;;5.50;3.27;;;14.60;99.90;;;;;;5002365;28;20552;-73
2021/10/02 03:37:20;;;;;;;3.80;2.77;;;14.60;99.90;;;;;;4994304;28;20481;-70
2021/10/02 03:39:47;;;;;;;4.93;3.50;;;14.70;99.90;;;;;;4993506;28;20488;-71
2021/10/02 03:42:20;;;;;;;3.33;3.00;;;14.70;99.90;;;;;;4991855;28;20532;-71
2021/10/02 03:44:48;;;;;;;2.83;2.63;;;14.60;99.90;;;;;;4995159;28;20449;-71
2021/10/02 03:47:18;;;;;;;2.97;2.77;;;14.50;99.90;;;;;;4997078;28;20489;-71
2021/10/02 03:49:46;;;;;;;3.63;3.23;;;14.60;99.90;;;;;;4993702;28;20644;-74
2021/10/02 03:52:14;;;;;;;3.00;2.80;;;14.50;99.90;;;;;;4991232;28;20477;-72
2021/10/02 03:54:42;;;;;;;3.80;3.10;;;14.50;99.90;;;;;;4995044;28;20454;-72
2021/10/02 03:57:09;;;;;;;4.20;3.70;;;14.50;99.90;;;;;;4995681;28;20544;-72
2021/10/02 03:59:37;;;;;;;4.77;3.57;;;14.60;99.90;;;;;;4988177;28;20461;-73
2021/10/02 04:02:04;;;;;;;3.80;3.20;;;14.50;99.90;;;;;;4992775;28;20971;-72
2021/10/02 04:04:31;;;;;;;3.47;3.03;;;14.50;99.90;;;;;;4994738;28;20528;-72
2021/10/02 04:06:58;;;;;;;4.60;3.83;;;14.50;99.90;;;;;;4989759;28;20458;-71
2021/10/02 04:09:26;;;;;;;3.40;2.70;;;14.60;99.90;;;;;;4992863;28;21026;-73
2021/10/02 04:11:53;;;;;;;4.13;3.73;;;14.60;99.90;;;;;;4995742;28;20913;-72
2021/10/02 04:14:20;;;;;;;3.77;3.40;;;14.60;99.90;;;;;;4991028;28;20989;-72
2021/10/02 04:16:50;;;;;;;3.80;3.07;;;14.50;99.90;;;;;;4998495;28;20472;-74
2021/10/02 04:19:17;;;;;;;3.07;2.87;;;14.60;99.90;;;;;;4995459;28;20493;-72
2021/10/02 04:21:45;;;;;;;4.50;4.10;;;14.60;99.90;;;;;;4998610;28;20466;-72
2021/10/02 04:24:12;;;;;;;6.17;4.67;;;14.50;99.90;;;;;;4999081;28;20842;-72
2021/10/02 04:26:39;;;;;;;3.20;2.90;;;14.40;99.90;;;;;;4995299;28;20528;-72
2021/10/02 04:29:06;;;;;;;4.90;3.13;;;14.50;99.90;;;;;;4990120;28;20564;-72
2021/10/02 04:31:33;;;;;;;4.90;4.00;;;14.50;99.90;;;;;;4993015;28;20556;-74
2021/10/02 04:34:02;;;;;;;4.50;3.30;;;14.60;99.90;;;;;;5001700;28;20552;-72
2021/10/02 04:36:29;;;;;;;5.37;3.60;;;14.50;99.90;;;;;;4996935;28;20456;-72
2021/10/02 04:38:56;;;;;;;4.43;2.90;;;14.50;99.90;;;;;;4995413;28;20573;-74
2021/10/02 04:41:23;;;;;;;5.70;3.20;;;14.50;99.90;;;;;;4997597;28;22289;-71
2021/10/02 04:43:50;;;;;;;4.60;3.40;;;14.60;99.90;;;;;;4995125;28;20445;-73
2021/10/02 04:46:19;;;;;;;5.13;3.20;;;14.60;99.90;;;;;;4991425;28;20446;-74
2021/10/02 04:48:47;;;;;;;4.50;3.87;;;14.70;99.90;;;;;;4995022;28;20503;-71
2021/10/02 04:51:16;;;;;;;4.60;4.17;;;14.70;99.90;;;;;;4989174;28;20497;-73
2021/10/02 04:53:43;;;;;;;4.53;3.70;;;14.70;99.90;;;;;;4998499;28;20455;-73
2021/10/02 04:56:13;;;;;;;4.43;4.03;;;14.60;99.90;;;;;;4996223;28;20449;-74
2021/10/02 04:58:40;;;;;;;4.87;2.97;;;14.60;99.90;;;;;;5001623;28;20970;-72
2021/10/02 05:01:07;;;;;;;4.50;3.50;;;14.50;99.90;;;;;;4999850;28;21005;-71
2021/10/02 05:03:34;;;;;;;4.70;4.20;;;14.50;99.90;;;;;;4999232;28;20875;-71
2021/10/02 05:06:03;;;;;;;5.30;3.50;;;14.60;99.90;;;;;;4998064;28;20529;-73
2021/10/02 05:08:32;;;;;;;5.67;4.30;;;14.70;99.90;;;;;;4998811;28;20495;-71
2021/10/02 05:11:00;;;;;;;5.83;4.20;;;14.60;99.90;;;;;;4997910;28;20549;-74
2021/10/02 05:13:27;;;;;;;4.43;4.03;;;14.60;99.90;;;;;;4999959;28;20833;-73
2021/10/02 05:15:55;;;;;;;5.60;3.30;;;14.50;99.90;;;;;;4991596;28;20461;-71
2021/10/02 05:18:22;;;;;;;5.03;4.50;;;14.60;99.90;;;;;;4995791;28;20484;-72
2021/10/02 05:20:49;;;;;;;5.03;4.53;;;14.60;99.90;;;;;;4997422;28;20858;-71
2021/10/02 05:23:16;;;;;;;5.23;4.07;;;14.60;99.90;;;;;;4996225;28;21005;-70
2021/10/02 05:25:45;;;;;;;5.27;4.63;;;14.60;99.90;;;;;;5001749;28;20504;-72
2021/10/02 05:28:12;;;;;;;4.37;3.97;;;14.80;99.90;;;;;;4999145;28;20536;-71
2021/10/02 05:30:39;;;;;;;3.87;3.47;;;14.80;99.90;;;;;;5001469;28;20466;-71
2021/10/02 05:33:06;;;;;;;5.27;4.77;;;14.70;99.90;;;;;;5001151;28;20441;-74
2021/10/02 05:35:34;;;;;;;5.40;3.93;;;14.70;99.90;;;;;;4994405;28;20689;-70
2021/10/02 05:38:01;;;;;;;4.47;4.07;;;14.70;99.90;;;;;;4993859;28;20663;-73
2021/10/02 05:40:29;;;;;;;6.57;4.00;;;14.70;99.90;;;;;;4992978;28;26375;-73
2021/10/02 05:42:58;;;;;;;7.23;5.23;;;14.80;99.90;;;;;;4999497;28;20439;-72
2021/10/02 05:45:25;;;;;;;5.37;4.67;;;14.90;99.90;;;;;;5003685;28;20795;-74
2021/10/02 05:47:52;;;;;;;4.90;3.90;;;14.60;99.90;;;;;;4991225;28;21067;-72
2021/10/02 05:50:19;;;;;;;7.23;4.50;;;14.60;99.90;;;;;;4994773;28;20678;-71
2021/10/02 05:52:46;;;;;;;4.37;2.97;;;14.70;99.90;;;;;;4994904;28;20432;-72
2021/10/02 05:55:13;;;;;;;5.50;4.50;;;14.70;99.90;;;;;;4996359;28;20453;-71
2021/10/02 05:57:40;;;;;;;8.23;3.73;;;14.60;99.90;;;;;;4996949;28;20549;-71
2021/10/02 06:00:10;;;;;;;5.93;3.47;;;14.50;99.90;;;;;;5002698;28;20493;-71
2021/10/02 06:02:37;;;;;;;3.53;3.23;;;14.40;99.90;;;;;;4995196;28;20485;-71
2021/10/02 06:05:05;;;;;;;4.00;3.60;;;14.40;99.90;;;;;;4993802;28;20582;-72
2021/10/02 06:07:32;;;;;;;4.40;4.00;;;14.50;99.90;;;;;;4996888;28;20508;-75
2021/10/02 06:09:59;;;;;;;4.87;4.33;;;14.60;99.90;;;;;;4992826;28;20481;-70
2021/10/02 06:12:26;;;;;;;9.20;3.37;;;14.60;99.90;;;;;;4998171;28;20560;-74
2021/10/02 06:14:53;;;;;;;3.73;3.40;;;14.50;99.90;;;;;;4999167;28;20485;-72
2021/10/02 06:17:21;;;;;;;5.80;4.03;;;14.50;99.90;;;;;;4996922;28;20464;-71
2021/10/02 06:19:48;;;;;;;4.27;3.20;;;14.60;99.90;;;;;;5000208;28;20847;-73
2021/10/02 06:22:15;;;;;;;3.10;2.80;;;14.60;99.90;;;;;;5001604;28;20493;-70
2021/10/02 06:24:42;;;;;;;4.57;3.27;;;14.50;99.90;;;;;;5005267;28;20454;-71
2021/10/02 06:27:09;;;;;;;3.83;3.50;;;14.50;99.90;;;;;;5001998;28;20466;-71
2021/10/02 06:29:37;;;;;;;3.80;2.83;;;14.60;99.90;;;;;;5004579;28;20572;-72
2021/10/02 06:32:04;;;;;;;6.83;2.97;;;14.60;99.90;;;;;;4999454;28;20441;-73
2021/10/02 06:34:32;;;;;;;4.23;3.23;;;14.70;99.90;;;;;;4996832;28;21015;-71
2021/10/02 06:36:59;;;;;;;6.57;4.77;;;14.70;99.90;;;;;;5005080;28;20549;-72
2021/10/02 06:39:26;;;;;;;4.30;3.90;;;14.60;99.90;;;;;;5001003;28;20654;-71
2021/10/02 06:41:53;;;;;;;5.47;3.47;;;14.50;99.90;;;;;;4994510;28;20494;-72
2021/10/02 06:44:20;;;;;;;5.30;3.30;;;14.50;99.90;;;;;;5001325;28;20548;-71
2021/10/02 06:46:47;;;;;;;7.40;3.70;;;14.50;99.90;;;;;;5005493;28;20535;-71
2021/10/02 06:49:14;;;;;;;4.43;3.60;;;14.60;99.90;;;;;;5000846;28;20506;-70
2021/10/02 06:51:42;;;;;;;3.20;2.60;;;14.60;99.90;;;;;;4997756;28;21100;-71
2021/10/02 06:54:10;;;;;;;7.30;3.57;;;14.70;99.90;;;;;;4996415;28;20808;-71
2021/10/02 06:56:37;;;;;;;5.67;2.93;;;14.80;99.90;;;;;;4990602;28;20458;-71
2021/10/02 06:59:04;;;;;;;3.20;2.70;;;14.80;99.90;;;;;;4994736;28;20541;-70
2021/10/02 07:01:31;;;;;;;3.27;2.57;;;14.70;99.90;;;;;;4989250;28;20481;-72
2021/10/02 07:03:58;;;;;;;3.60;3.20;;;14.80;99.90;;;;;;4983644;28;21069;-71
2021/10/02 07:06:26;;;;;;;3.43;2.87;;;14.80;99.90;;;;;;4986464;28;20641;-74
2021/10/02 07:08:54;;;;;;;3.13;2.77;;;14.70;99.90;;;;;;4999477;28;20484;-72
2021/10/02 07:11:21;;;;;;;6.90;3.67;;;14.80;99.90;;;;;;4999890;28;20512;-71
2021/10/02 07:13:48;;;;;;;3.77;3.47;;;14.90;99.90;;;;;;5001203;28;20649;-74
2021/10/02 07:16:15;;;;;;;4.30;2.60;;;14.90;99.90;;;;;;4998393;28;20538;-70
2021/10/02 07:18:42;;;;;;;2.17;1.80;;;14.90;99.90;;;;;;4999587;28;20850;-76
2021/10/02 07:21:09;;;;;;;7.60;2.40;;;14.90;99.90;;;;;;4993354;28;20564;-71
2021/10/02 07:23:37;;;;;;;2.33;2.13;;;15.00;99.90;;;;;;4996285;28;20461;-72
2021/10/02 07:26:07;;;;;;;2.90;2.70;;;15.10;99.90;;;;;;4995964;28;20465;-72
2021/10/02 07:28:34;;;;;;;3.80;3.40;;;15.10;99.90;;;;;;4997641;28;20492;-71
2021/10/02 07:31:01;;;;;;;2.73;2.47;;;15.20;99.90;;;;;;4991510;28;20546;-71
2021/10/02 07:33:28;;;;;;;3.00;2.70;;;15.10;99.90;;;;;;4995505;28;21001;-72
2021/10/02 07:35:55;;;;;;;7.90;1.87;;;15.20;99.90;;;;;;4994724;28;20550;-73
2021/10/02 07:38:22;;;;;;;2.70;2.50;;;15.20;99.90;;;;;;5000540;28;20481;-72
2021/10/02 07:40:50;;;;;;;2.67;2.00;;;15.20;99.90;;;;;;4998963;28;20466;-71
2021/10/02 07:43:21;;;;;;;3.17;2.30;;;15.10;99.90;;;;;;4997704;28;20453;-76
2021/10/02 07:45:51;;;;;;;2.37;1.80;;;15.10;99.90;;;;;;4995802;28;20457;-75
2021/10/02 07:48:19;;;;;;;2.83;2.57;;;15.30;99.90;;;;;;4996340;28;20488;-72
2021/10/02 07:50:46;;;;;;;2.30;2.10;;;15.30;99.90;;;;;;4992693;28;20585;-72
2021/10/02 07:53:13;;;;;;;3.60;1.83;;;15.20;99.90;;;;;;4995528;28;20465;-73
2021/10/02 07:55:42;;;;;;;2.80;2.30;;;15.20;99.90;;;;;;5002930;28;20540;-72
2021/10/02 07:58:10;;;;;;;1.93;1.80;;;15.30;99.90;;;;;;5005348;28;20497;-73
2021/10/02 08:00:39;;;;;;;2.10;1.93;;;15.40;99.90;;;;;;4995771;28;20533;-74
2021/10/02 08:03:07;;;;;;;2.70;2.23;;;15.30;99.90;;;;;;5001068;28;20553;-75
2021/10/02 08:05:37;;;;;;;2.03;1.83;;;15.50;99.90;;;;;;4985831;28;20922;-77
2021/10/02 08:08:05;;;;;;;1.63;1.30;;;15.40;99.90;;;;;;4990391;28;20485;-72
2021/10/02 08:10:32;;;;;;;3.03;1.70;;;15.50;99.90;;;;;;4989492;28;20512;-74
2021/10/02 08:13:00;;;;;;;2.03;1.70;;;15.60;99.90;;;;;;5000525;28;20463;-72
2021/10/02 08:15:27;;;;;;;1.80;1.70;;;15.40;99.90;;;;;;4996550;28;20449;-73
2021/10/02 08:17:57;;;;;;;2.17;1.97;;;15.60;99.90;;;;;;5001726;28;20445;-72
2021/10/02 08:20:25;;;;;;;1.57;1.40;;;15.60;99.90;;;;;;5000750;28;21376;-75
2021/10/02 08:22:54;;;;;;;2.40;1.90;;;15.80;99.90;;;;;;5007303;28;21325;-71
2021/10/02 08:25:21;;;;;;;5.47;2.57;;;15.70;99.90;;;;;;5007220;28;20461;-74
2021/10/02 08:27:49;;;;;;;1.53;1.40;;;15.70;99.90;;;;;;5004663;28;20529;-74
2021/10/02 08:30:19;;;;;;;1.20;1.10;;;15.50;99.90;;;;;;5004435;28;20505;-76
2021/10/02 08:32:46;;;;;;;2.27;1.40;;;15.60;99.90;;;;;;5008479;28;20461;-74
2021/10/02 08:35:15;;;;;;;2.13;1.33;;;15.90;99.90;;;;;;4998757;28;20466;-72
2021/10/02 08:37:43;;;;;;;2.63;1.20;;;15.70;99.90;;;;;;4999670;28;20524;-74
2021/10/02 08:40:14;;;;;;;1.90;1.17;;;15.90;99.90;;;;;;5001111;28;20533;-74
2021/10/02 08:42:42;;;;;;;2.03;1.60;;;16.10;99.90;;;;;;5004456;28;20461;-74
2021/10/02 08:45:11;;;;;;;1.30;1.20;;;16.20;99.90;;;;;;5000044;28;20540;-74
2021/10/02 08:47:40;;;;;;;2.53;2.33;;;16.20;99.90;;;;;;4997023;28;20518;-73
2021/10/02 08:50:10;;;;;;;1.20;1.00;;;16.20;99.90;;;;;;4995610;28;20582;-71
2021/10/02 08:52:39;;;;;;;2.80;1.50;;;16.50;99.90;;;;;;5001672;28;20450;-74
2021/10/02 08:55:09;;;;;;;2.70;1.63;;;16.70;99.90;;;;;;4996610;28;20507;-72
2021/10/02 08:57:38;;;;;;;1.33;1.23;;;16.70;99.90;;;;;;5005925;28;20475;-72
2021/10/02 09:00:07;;;;;;;1.90;1.70;;;16.70;99.90;;;;;;4998371;28;20516;-74
2021/10/02 09:02:34;;;;;;;1.67;1.30;;;16.70;99.90;;;;;;4992070;28;20457;-74
2021/10/02 09:05:03;;;;;;;1.50;1.20;;;16.90;99.90;;;;;;4992133;28;20458;-71
2021/10/02 09:07:30;;;;;;;1.70;1.20;;;16.70;99.90;;;;;;4999134;28;20493;-73
2021/10/02 09:10:02;;;;;;;1.50;1.13;;;16.90;99.90;;;;;;4985766;28;20465;-74
2021/10/02 09:12:31;;;;;;;1.60;1.20;;;16.90;99.90;;;;;;4989591;28;20461;-73
2021/10/02 09:15:02;;;;;;;1.40;1.20;;;16.80;99.90;;;;;;4986107;28;20469;-73
2021/10/02 09:17:29;;;;;;;1.50;1.33;;;16.80;99.90;;;;;;4986245;28;20584;-73
2021/10/02 09:19:56;;;;;;;1.57;1.27;;;17.00;99.90;;;;;;4982275;28;20930;-73
2021/10/02 09:22:23;;;;;;;2.27;1.23;;;17.30;99.90;;;;;;4981531;28;20496;-73
2021/10/02 09:24:52;;;;;;;2.00;1.00;;;17.30;99.90;;;;;;4983774;28;20920;-71
2021/10/02 09:27:22;;;;;;;1.70;1.37;;;17.20;99.90;;;;;;5000568;28;20857;-72
2021/10/02 09:29:51;;;;;;;1.63;1.13;;;16.90;99.90;;;;;;4991447;28;20493;-73
2021/10/02 09:32:20;;;;;;;1.70;1.27;;;17.10;99.90;;;;;;4995131;28;20584;-74
2021/10/02 09:34:50;;;;;;;1.40;1.30;;;17.20;99.90;;;;;;4998200;28;20510;-73
2021/10/02 09:37:19;;;;;;;2.20;1.20;;;17.50;99.90;;;;;;4988613;28;20721;-74
2021/10/02 09:39:47;;;;;;;1.40;1.10;;;17.60;99.90;;;;;;4995222;28;20604;-71
2021/10/02 09:42:37;;;;;;;2.93;1.37;;;17.70;99.90;;;;;;4990987;28;20515;-74
2021/10/02 09:45:08;;;;;;;1.87;1.10;;;17.70;99.90;;;;;;4998900;28;20497;-72
2021/10/02 09:47:35;;;;;;;1.93;1.40;;;17.50;99.90;;;;;;4993987;28;20597;-72
2021/10/02 09:50:08;;;;;;;1.70;1.33;;;17.20;99.90;;;;;;4986547;28;20542;-74
2021/10/02 09:52:38;;;;;;;1.50;1.23;;;17.00;99.90;;;;;;4991847;28;20496;-73
2021/10/02 09:55:17;;;;;;;1.50;1.40;;;17.20;99.90;;;;;;4994660;28;20547;-71
2021/10/02 09:57:48;;;;;;;3.47;1.23;;;17.70;99.90;;;;;;4996649;28;20469;-72
2021/10/02 10:00:18;;;;;;;1.83;1.33;;;17.90;99.90;;;;;;4996330;28;20526;-72
2021/10/02 10:02:45;;;;;;;1.40;1.10;;;17.80;99.90;;;;;;4993690;28;20461;-73
2021/10/02 10:05:14;;;;;;;1.40;1.20;;;17.50;99.90;;;;;;5001046;28;20897;-72
2021/10/02 10:07:51;;;;;;;2.20;1.00;;;17.10;99.90;;;;;;5006762;28;20574;-75
2021/10/02 10:10:18;;;;;;;1.70;1.20;;;17.30;99.90;;;;;;5002925;28;20673;-77
2021/10/02 10:12:46;;;;;;;3.10;1.30;;;17.50;99.90;;;;;;5004688;28;20478;-75
2021/10/02 10:15:30;;;;;;;2.70;1.73;;;17.50;99.90;;;;;;4992549;28;20559;-72
2021/10/02 10:17:58;;;;;;;1.20;1.00;;;17.50;99.90;;;;;;4993925;28;20846;-74
2021/10/02 10:20:34;;;;;;;2.17;1.33;;;17.50;99.90;;;;;;4982383;28;20545;-73
2021/10/02 10:23:02;;;;;;;2.20;1.50;;;17.50;99.90;;;;;;5001806;28;20760;-72
2021/10/02 10:25:30;;;;;;;2.80;1.77;;;17.60;99.90;;;;;;4985841;28;26693;-73
2021/10/02 10:28:01;;;;;;;1.40;1.30;;;17.60;99.90;;;;;;5002106;28;20485;-73
2021/10/02 10:30:30;;;;;;;3.57;1.90;;;17.70;99.90;;;;;;4991845;28;20576;-72
2021/10/02 10:33:00;;;;;;;2.00;1.50;;;17.80;99.90;;;;;;4991755;28;20556;-72
2021/10/02 10:35:29;;;;;;;1.40;1.13;;;18.10;99.90;;;;;;5013673;28;20527;-72
2021/10/02 10:37:57;;;;;;;2.13;1.93;;;17.80;99.90;;;;;;5006649;28;20966;-72
2021/10/02 10:40:24;;;;;;;3.20;2.10;;;17.40;99.90;;;;;;4991973;28;21040;-73
2021/10/02 10:42:52;;;;;;;1.57;1.47;;;17.40;99.90;;;;;;4998988;28;20470;-72
2021/10/02 10:45:21;;;;;;;2.20;1.30;;;17.80;99.90;;;;;;5002208;28;20489;-73
2021/10/02 10:47:49;;;;;;;2.23;1.47;;;18.10;99.90;;;;;;4996900;28;20480;-73
2021/10/02 10:50:16;;;;;;;1.43;1.33;;;18.30;99.90;;;;;;4994088;28;20564;-74
2021/10/02 10:52:45;;;;;;;1.70;1.30;;;18.60;99.90;;;;;;4998623;28;20461;-75
2021/10/02 10:55:14;;;;;;;1.67;1.20;;;18.70;99.90;;;;;;5004207;28;21016;-71
2021/10/02 10:57:44;;;;;;;1.53;1.23;;;18.80;99.90;;;;;;4998553;28;20495;-73
2021/10/02 11:00:18;;;;;;;1.60;1.20;;;18.70;99.90;;;;;;4998833;28;20458;-72
2021/10/02 11:02:49;;;;;;;1.60;1.50;;;18.50;99.90;;;;;;4998747;28;20538;-73
2021/10/02 11:06:00;;;;;;;1.10;1.00;;;18.60;99.90;;;;;;4987371;28;20945;-74
2021/10/02 11:08:57;;;;;;;1.77;1.20;;;18.40;99.90;;;;;;4991357;28;20562;-72
2021/10/02 11:11:55;;;;;;;1.40;1.20;;;18.00;99.90;;;;;;5004860;28;20479;-72
2021/10/02 11:14:24;;;;;;;1.00;0.80;;;17.90;99.90;;;;;;4986099;28;20492;-72
2021/10/02 11:17:00;;;;;;;1.60;1.40;;;17.80;99.90;;;;;;5008755;28;20481;-72
2021/10/02 11:19:31;;;;;;;1.50;1.40;;;17.60;99.90;;;;;;5005039;28;21032;-72
2021/10/02 11:22:30;;;;;;;2.17;1.97;;;17.40;99.90;;;;;;5008085;28;20511;-72
2021/10/02 11:25:00;;;;;;;2.10;1.20;;;17.80;99.90;;;;;;5001539;28;20470;-72
2021/10/02 11:27:27;;;;;;;4.63;1.77;;;17.90;99.90;;;;;;5004718;28;20544;-73
2021/10/02 11:29:54;;;;;;;3.77;1.60;;;18.00;99.90;;;;;;4985632;28;20998;-72
2021/10/02 11:32:26;;;;;;;1.90;1.33;;;18.20;99.90;;;;;;5002636;28;20574;-75
2021/10/02 11:35:19;;;;;;;1.73;1.50;;;17.90;99.90;;;;;;4994024;28;20455;-72
2021/10/02 11:37:50;;;;;;;1.87;1.40;;;17.80;99.90;;;;;;4981279;28;20547;-74
2021/10/02 11:40:48;;;;;;;2.10;1.60;;;18.00;99.90;;;;;;4993684;28;20463;-72
2021/10/02 11:43:27;;;;;;;1.60;1.20;;;18.50;99.90;;;;;;4994681;28;20464;-75
2021/10/02 11:45:58;;;;;;;2.23;1.60;;;18.40;99.90;;;;;;4987548;28;20469;-75
2021/10/02 11:48:37;;;;;;;2.63;1.30;;;18.20;99.90;;;;;;4989759;28;20485;-77
2021/10/02 11:51:30;;;;;;;2.23;1.67;;;18.00;99.90;;;;;;4992422;28;20474;-73
2021/10/02 11:53:59;;;;;;;1.93;1.20;;;18.10;99.90;;;;;;4982833;28;21549;-73
2021/10/02 11:56:29;;;;;;;2.13;1.40;;;18.20;99.90;;;;;;4991793;28;20442;-73
2021/10/02 11:58:57;;;;;;;3.20;1.70;;;18.20;99.90;;;;;;4991148;28;20508;-74
2021/10/02 12:01:26;;;;;;;1.60;1.40;;;18.20;99.90;;;;;;4991137;28;20504;-73
2021/10/02 12:04:05;;;;;;;1.57;1.40;;;18.10;99.90;;;;;;4996378;28;20534;-73
2021/10/02 12:06:37;;;;;;;1.30;1.20;;;18.30;99.90;;;;;;4992107;28;21029;-75
2021/10/02 12:09:05;;;;;;;2.13;1.70;;;18.70;99.90;;;;;;4995693;28;20662;-77
2021/10/02 12:11:40;;;;;;;1.70;1.40;;;19.20;99.90;;;;;;4997946;28;20844;-76
2021/10/02 12:14:07;;;;;;;1.57;1.33;;;19.80;99.90;;;;;;4996829;28;20440;-73
2021/10/02 12:16:36;;;;;;;2.43;1.60;;;20.00;99.90;;;;;;4999856;28;20524;-75
2021/10/02 12:19:09;;;;;;;1.93;1.60;;;19.80;99.90;;;;;;4983306;28;21104;-75
2021/10/02 12:21:40;;;;;;;8.07;1.63;;;20.00;99.90;;;;;;4994618;28;20453;-73
2021/10/02 12:24:14;;;;;;;2.47;1.47;;;21.00;99.90;;;;;;4995867;28;20593;-72
2021/10/02 12:26:47;;;;;;;1.20;1.00;;;21.80;99.90;;;;;;4988159;28;20556;-73
2021/10/02 12:29:16;;;;;;;1.83;1.50;;;21.70;99.90;;;;;;4982264;28;20497;-74
2021/10/02 12:31:52;;;;;;;1.40;1.20;;;21.30;99.90;;;;;;4993356;28;20489;-72
2021/10/02 12:34:21;;;;;;;2.90;1.33;;;21.40;99.90;;;;;;4995352;28;20552;-72
2021/10/02 12:36:52;;;;;;;3.23;1.43;;;20.90;99.90;;;;;;4997302;28;20876;-72
2021/10/02 12:39:25;;;;;;;1.33;1.17;;;20.30;99.90;;;;;;4991449;28;20494;-71
2021/10/02 12:41:52;;;;;;;1.47;0.97;;;19.80;99.90;;;;;;4992884;28;20585;-71
2021/10/02 12:44:22;;;;;;;1.70;1.30;;;19.70;99.90;;;;;;4987666;28;20457;-73
2021/10/02 12:46:50;;;;;;;1.33;1.10;;;19.60;99.90;;;;;;4979070;28;20488;-71
2021/10/02 12:49:18;;;;;;;3.33;1.63;;;19.50;99.90;;;;;;4979034;28;20896;-72
2021/10/02 12:51:45;;;;;;;5.97;1.40;;;19.50;99.90;;;;;;4991592;28;20625;-72
2021/10/02 12:54:16;;;;;;;3.50;1.40;;;19.30;99.90;;;;;;4997509;28;20462;-71
2021/10/02 12:57:01;;;;;;;8.23;2.47;;;19.30;99.90;;;;;;4994756;28;20449;-72
2021/10/02 12:59:43;;;;;;;2.70;1.87;;;19.30;99.90;;;;;;4969340;28;20493;-75
2021/10/02 13:02:11;;;;;;;1.40;1.20;;;19.30;99.90;;;;;;4989885;28;20439;-75
2021/10/02 13:04:38;;;;;;;1.60;1.33;;;19.40;99.90;;;;;;4996468;28;20865;-72
2021/10/02 13:07:09;;;;;;;2.23;1.10;;;19.70;99.90;;;;;;4987661;28;21064;-72
2021/10/02 13:10:01;;;;;;;1.40;1.10;;;20.20;99.90;;;;;;4991874;28;20582;-72
2021/10/02 13:12:30;;;;;;;1.00;0.80;;;21.30;99.90;;;;;;5003442;28;20477;-73
2021/10/02 13:14:59;;;;;;;3.17;1.40;;;21.70;99.90;;;;;;5005001;28;20581;-71
2021/10/02 13:17:26;;;;;;;1.70;1.20;;;22.00;99.90;;;;;;4989249;28;20527;-70
2021/10/02 13:20:12;;;;;;;1.50;1.10;;;21.70;99.90;;;;;;4985911;28;21022;-73
2021/10/02 13:22:45;;;;;;;1.20;1.00;;;21.60;99.90;;;;;;4991860;28;20553;-71
2021/10/02 13:25:19;;;;;;;1.43;1.10;;;21.20;99.90;;;;;;4998844;28;20449;-73
2021/10/02 13:27:48;;;;;;;1.10;0.90;;;20.70;99.90;;;;;;4997474;28;20490;-70
2021/10/02 13:30:18;;;;;;;1.50;1.07;;;20.10;99.90;;;;;;4991352;28;20986;-70
2021/10/02 13:33:01;;;;;;;1.10;0.77;;;19.60;99.90;;;;;;5001073;28;21922;-74
2021/10/02 13:35:31;;;;;;;1.50;1.03;;;19.40;99.90;;;;;;4999326;28;20500;-71
2021/10/02 13:37:58;;;;;;;1.53;1.27;;;19.30;99.90;;;;;;4999983;28;20477;-72
2021/10/02 13:40:30;;;;;;;1.20;1.00;;;19.30;99.90;;;;;;4986398;28;20457;-74
2021/10/02 13:42:58;;;;;;;1.37;1.20;;;19.20;99.90;;;;;;5000457;28;20871;-73
2021/10/02 13:45:31;;;;;;;1.20;1.07;;;19.10;99.90;;;;;;4994282;28;20572;-70
2021/10/02 13:48:05;;;;;;;1.40;1.07;;;19.10;99.90;;;;;;4989826;28;20748;-72
2021/10/02 13:50:32;;;;;;;1.33;1.23;;;18.80;99.90;;;;;;5000032;28;20493;-73
2021/10/02 13:52:59;;;;;;;1.83;1.30;;;18.70;99.90;;;;;;4992046;28;20492;-73
2021/10/02 13:55:30;;;;;;;1.37;1.07;;;18.60;99.90;;;;;;5000028;28;20489;-73